Lone Tree, Illinois
Current Conditions -  °F | °C
As of 3:15 PM on Sunday 23 Nov 2014 (Local Time) from KC75 Reporting Station
Moderate Rain Moderate Rain  
Wind Chill: 10°   Ceiling: 1200
Heat Index: 10°   Visibility: 5mi
Dew Point:   Wind: 10mph
Humidity: 92%   Direction: 150°SSE
Pressure: 29.42"   Gusts: NA
Location:  41.2776°N, 89.5099°W
Report Text: KC75 232115Z AUTO 15009KT 5SM RA BKN012 BKN027 OVC034 10/09 A2942 RMK AO2 P0002 T01030090
Loading
Personal Weather Stations






























Interactive Weather Map New forecast layout! Learn more

10-Day Weather Forecast

Advertisements
Track Severe Weather on mobile